Stavelot, Belgium
Current Conditions -  °F | °C
As of 3:25 PM on Saturday 20 Dec 2014 (Local Time) from EBLB Reporting Station
Broken Clouds Broken Clouds  
Wind Chill: 28°   Ceiling: 2000
Heat Index: 37°   Visibility: 6mi
Dew Point: 34°   Wind: 16mph
Humidity: 87%   Direction: 290°WNW
Pressure: 30.15"   Gusts: 29mph
Location:  50.4°N, 5.93°E
Report Text: EBLB 201425Z AUTO 29014G25KT 9999 FEW012/// SCT017/// BKN020/// 03/01 Q1021 WHT
Loading
Personal Weather Stations






























Interactive Weather Map New forecast layout! Learn more

10-Day Weather Forecast

Advertisements
Track Severe Weather on mobile